sensor_id;sensor_type;location;lat;lon;timestamp;pressure;altitude;pressure_sealevel;temperature;humidity
63715;BME280;49858;48.956;9.076;2022-11-06T00:00:05;99178.91;;;6.65;100.00
63715;BME280;49858;48.956;9.076;2022-11-06T00:02:33;99178.94;;;6.82;100.00
63715;BME280;49858;48.956;9.076;2022-11-06T00:05:01;99178.13;;;6.73;100.00
63715;BME280;49858;48.956;9.076;2022-11-06T00:07:45;99179.88;;;6.86;100.00
63715;BME280;49858;48.956;9.076;2022-11-06T00:10:14;99170.56;;;7.05;100.00
63715;BME280;49858;48.956;9.076;2022-11-06T00:12:42;99178.63;;;7.36;100.00
63715;BME280;49858;48.956;9.076;2022-11-06T00:15:10;99170.25;;;7.41;100.00
63715;BME280;49858;48.956;9.076;2022-11-06T00:17:39;99172.66;;;7.34;100.00
63715;BME280;49858;48.956;9.076;2022-11-06T00:20:07;99177.28;;;6.73;100.00
63715;BME280;49858;48.956;9.076;2022-11-06T00:22:36;99180.09;;;7.16;100.00
63715;BME280;49858;48.956;9.076;2022-11-06T00:25:06;99185.84;;;7.23;100.00
63715;BME280;49858;48.956;9.076;2022-11-06T00:27:34;99192.47;;;7.31;100.00
63715;BME280;49858;48.956;9.076;2022-11-06T00:30:03;99182.00;;;7.07;100.00
63715;BME280;49858;48.956;9.076;2022-11-06T00:32:31;99188.13;;;7.12;100.00
63715;BME280;49858;48.956;9.076;2022-11-06T00:34:59;99185.38;;;7.04;100.00
63715;BME280;49858;48.956;9.076;2022-11-06T00:37:27;99187.69;;;6.45;100.00
63715;BME280;49858;48.956;9.076;2022-11-06T00:39:55;99190.28;;;6.10;100.00
63715;BME280;49858;48.956;9.076;2022-11-06T00:42:24;99188.84;;;5.59;100.00
63715;BME280;49858;48.956;9.076;2022-11-06T00:44:52;99193.75;;;5.71;100.00
63715;BME280;49858;48.956;9.076;2022-11-06T00:47:19;99198.94;;;6.03;100.00
63715;BME280;49858;48.956;9.076;2022-11-06T00:49:47;99200.06;;;6.11;100.00
63715;BME280;49858;48.956;9.076;2022-11-06T00:52:15;99196.59;;;6.19;100.00
63715;BME280;49858;48.956;9.076;2022-11-06T00:54:43;99196.50;;;6.42;100.00
63715;BME280;49858;48.956;9.076;2022-11-06T00:57:10;99194.28;;;6.52;100.00
63715;BME280;49858;48.956;9.076;2022-11-06T00:59:39;99193.34;;;6.57;100.00
63715;BME280;49858;48.956;9.076;2022-11-06T01:02:07;99194.78;;;6.54;100.00
63715;BME280;49858;48.956;9.076;2022-11-06T01:04:35;99196.41;;;6.15;100.00
63715;BME280;49858;48.956;9.076;2022-11-06T01:07:03;99191.31;;;6.23;100.00
63715;BME280;49858;48.956;9.076;2022-11-06T01:09:31;99184.19;;;6.61;100.00
63715;BME280;49858;48.956;9.076;2022-11-06T01:11:58;99179.03;;;6.60;100.00
63715;BME280;49858;48.956;9.076;2022-11-06T01:14:44;99181.25;;;6.40;100.00
63715;BME280;49858;48.956;9.076;2022-11-06T01:17:12;99178.72;;;6.13;100.00
63715;BME280;49858;48.956;9.076;2022-11-06T01:19:40;99174.69;;;5.79;100.00
63715;BME280;49858;48.956;9.076;2022-11-06T01:22:09;99180.69;;;5.36;100.00
63715;BME280;49858;48.956;9.076;2022-11-06T01:24:36;99178.28;;;5.21;100.00
63715;BME280;49858;48.956;9.076;2022-11-06T01:27:04;99188.03;;;5.58;100.00
63715;BME280;49858;48.956;9.076;2022-11-06T01:29:54;99191.88;;;5.57;100.00
63715;BME280;49858;48.956;9.076;2022-11-06T01:32:22;99189.94;;;6.03;100.00
63715;BME280;49858;48.956;9.076;2022-11-06T01:34:50;99181.13;;;6.14;100.00
63715;BME280;49858;48.956;9.076;2022-11-06T01:37:17;99173.41;;;6.08;100.00
63715;BME280;49858;48.956;9.076;2022-11-06T01:39:47;99180.38;;;5.92;100.00
63715;BME280;49858;48.956;9.076;2022-11-06T01:42:18;99177.56;;;5.74;100.00
63715;BME280;49858;48.956;9.076;2022-11-06T01:47:57;99184.34;;;5.85;100.00
63715;BME280;49858;48.956;9.076;2022-11-06T01:50:25;99180.34;;;6.14;100.00
63715;BME280;49858;48.956;9.076;2022-11-06T01:52:53;99174.47;;;6.38;100.00
63715;BME280;49858;48.956;9.076;2022-11-06T01:55:26;99169.34;;;6.36;100.00
63715;BME280;49858;48.956;9.076;2022-11-06T01:57:56;99168.00;;;6.25;100.00
63715;BME280;49858;48.956;9.076;2022-11-06T02:00:24;99165.06;;;5.82;100.00
63715;BME280;49858;48.956;9.076;2022-11-06T02:02:53;99174.50;;;5.76;100.00
63715;BME280;49858;48.956;9.076;2022-11-06T02:05:22;99169.56;;;6.09;100.00
63715;BME280;49858;48.956;9.076;2022-11-06T02:07:50;99172.75;;;5.80;100.00
63715;BME280;49858;48.956;9.076;2022-11-06T02:10:18;99167.91;;;5.77;100.00
63715;BME280;49858;48.956;9.076;2022-11-06T02:13:11;99177.91;;;5.81;100.00
63715;BME280;49858;48.956;9.076;2022-11-06T02:15:47;99171.06;;;5.93;100.00
63715;BME280;49858;48.956;9.076;2022-11-06T02:18:38;99160.72;;;5.81;100.00
63715;BME280;49858;48.956;9.076;2022-11-06T02:24:31;99140.56;;;5.68;100.00
63715;BME280;49858;48.956;9.076;2022-11-06T02:27:07;99139.31;;;5.21;100.00
63715;BME280;49858;48.956;9.076;2022-11-06T02:29:43;99145.50;;;4.90;100.00
63715;BME280;49858;48.956;9.076;2022-11-06T02:32:16;99129.03;;;5.18;100.00
63715;BME280;49858;48.956;9.076;2022-11-06T02:34:45;99132.00;;;5.30;100.00
63715;BME280;49858;48.956;9.076;2022-11-06T02:37:17;99131.47;;;4.83;100.00
63715;BME280;49858;48.956;9.076;2022-11-06T02:39:47;99136.81;;;4.88;100.00
63715;BME280;49858;48.956;9.076;2022-11-06T02:42:19;99114.97;;;5.24;100.00
63715;BME280;49858;48.956;9.076;2022-11-06T02:44:50;99111.28;;;5.29;100.00
63715;BME280;49858;48.956;9.076;2022-11-06T02:47:21;99101.78;;;5.49;100.00
63715;BME280;49858;48.956;9.076;2022-11-06T02:49:53;99099.56;;;5.51;100.00
63715;BME280;49858;48.956;9.076;2022-11-06T02:52:25;99101.59;;;5.45;100.00
63715;BME280;49858;48.956;9.076;2022-11-06T02:54:58;99090.66;;;5.36;100.00
63715;BME280;49858;48.956;9.076;2022-11-06T02:57:31;99086.16;;;5.72;100.00
63715;BME280;49858;48.956;9.076;2022-11-06T03:00:03;99079.19;;;5.57;100.00
63715;BME280;49858;48.956;9.076;2022-11-06T03:02:35;99084.94;;;5.24;100.00
63715;BME280;49858;48.956;9.076;2022-11-06T03:05:10;99078.06;;;5.27;100.00
63715;BME280;49858;48.956;9.076;2022-11-06T03:07:46;99077.72;;;5.20;100.00
63715;BME280;49858;48.956;9.076;2022-11-06T03:10:16;99077.50;;;5.16;100.00
63715;BME280;49858;48.956;9.076;2022-11-06T03:12:51;99082.34;;;5.19;100.00
63715;BME280;49858;48.956;9.076;2022-11-06T03:15:27;99083.09;;;5.33;100.00
63715;BME280;49858;48.956;9.076;2022-11-06T03:18:07;99070.94;;;5.17;100.00
63715;BME280;49858;48.956;9.076;2022-11-06T03:20:40;99071.72;;;5.40;100.00
63715;BME280;49858;48.956;9.076;2022-11-06T03:23:13;99078.09;;;5.35;100.00
63715;BME280;49858;48.956;9.076;2022-11-06T03:25:45;99079.94;;;5.49;100.00
63715;BME280;49858;48.956;9.076;2022-11-06T03:28:22;99076.03;;;5.72;100.00
63715;BME280;49858;48.956;9.076;2022-11-06T03:30:55;99069.84;;;5.89;100.00
63715;BME280;49858;48.956;9.076;2022-11-06T03:33:29;99070.47;;;6.17;100.00
63715;BME280;49858;48.956;9.076;2022-11-06T03:36:02;99068.16;;;6.10;100.00
63715;BME280;49858;48.956;9.076;2022-11-06T03:38:34;99071.91;;;5.44;100.00
63715;BME280;49858;48.956;9.076;2022-11-06T03:41:11;99066.69;;;5.96;100.00
63715;BME280;49858;48.956;9.076;2022-11-06T03:43:43;99053.94;;;5.43;100.00
63715;BME280;49858;48.956;9.076;2022-11-06T03:46:14;99044.84;;;5.56;100.00
63715;BME280;49858;48.956;9.076;2022-11-06T03:48:47;99044.00;;;5.47;100.00
63715;BME280;49858;48.956;9.076;2022-11-06T03:51:17;99043.81;;;5.74;100.00
63715;BME280;49858;48.956;9.076;2022-11-06T03:53:48;99051.47;;;5.72;100.00
63715;BME280;49858;48.956;9.076;2022-11-06T03:56:21;99052.47;;;5.36;100.00
63715;BME280;49858;48.956;9.076;2022-11-06T03:58:53;99057.91;;;5.76;100.00
63715;BME280;49858;48.956;9.076;2022-11-06T04:01:25;99056.00;;;5.77;100.00
63715;BME280;49858;48.956;9.076;2022-11-06T04:03:57;99050.19;;;6.09;100.00
63715;BME280;49858;48.956;9.076;2022-11-06T04:06:31;99054.84;;;6.09;100.00
63715;BME280;49858;48.956;9.076;2022-11-06T04:09:04;99050.00;;;6.06;100.00
63715;BME280;49858;48.956;9.076;2022-11-06T04:11:50;99053.53;;;5.98;100.00
63715;BME280;49858;48.956;9.076;2022-11-06T04:14:41;99040.72;;;6.24;100.00
63715;BME280;49858;48.956;9.076;2022-11-06T04:17:13;99045.19;;;6.03;100.00
63715;BME280;49858;48.956;9.076;2022-11-06T04:19:46;99038.19;;;5.88;100.00
63715;BME280;49858;48.956;9.076;2022-11-06T04:22:33;99032.59;;;5.84;100.00
63715;BME280;49858;48.956;9.076;2022-11-06T04:25:17;99029.47;;;5.69;100.00
63715;BME280;49858;48.956;9.076;2022-11-06T04:28:28;99022.69;;;5.57;100.00
63715;BME280;49858;48.956;9.076;2022-11-06T04:31:06;99020.94;;;5.61;100.00
63715;BME280;49858;48.956;9.076;2022-11-06T04:33:42;99015.75;;;5.43;100.00
63715;BME280;49858;48.956;9.076;2022-11-06T04:36:17;99017.66;;;5.42;100.00
63715;BME280;49858;48.956;9.076;2022-11-06T04:38:54;99006.44;;;5.44;100.00
63715;BME280;49858;48.956;9.076;2022-11-06T04:41:29;99006.59;;;5.47;100.00
63715;BME280;49858;48.956;9.076;2022-11-06T04:44:03;99010.56;;;5.32;100.00
63715;BME280;49858;48.956;9.076;2022-11-06T04:46:38;98999.19;;;5.08;100.00
63715;BME280;49858;48.956;9.076;2022-11-06T04:49:09;99004.63;;;4.99;100.00
63715;BME280;49858;48.956;9.076;2022-11-06T04:51:39;98993.22;;;4.75;100.00
63715;BME280;49858;48.956;9.076;2022-11-06T04:54:09;98982.44;;;4.70;100.00
63715;BME280;49858;48.956;9.076;2022-11-06T04:56:38;98981.44;;;4.66;100.00
63715;BME280;49858;48.956;9.076;2022-11-06T04:59:13;98989.88;;;4.78;100.00
63715;BME280;49858;48.956;9.076;2022-11-06T05:01:43;99008.63;;;4.79;100.00
63715;BME280;49858;48.956;9.076;2022-11-06T05:04:11;99014.59;;;5.04;100.00
63715;BME280;49858;48.956;9.076;2022-11-06T05:06:39;99016.59;;;4.98;100.00
63715;BME280;49858;48.956;9.076;2022-11-06T05:09:07;99013.66;;;4.64;100.00
63715;BME280;49858;48.956;9.076;2022-11-06T05:11:35;99031.44;;;5.37;100.00
63715;BME280;49858;48.956;9.076;2022-11-06T05:14:03;99043.50;;;5.45;100.00
63715;BME280;49858;48.956;9.076;2022-11-06T05:16:31;99038.50;;;5.38;100.00
63715;BME280;49858;48.956;9.076;2022-11-06T05:19:00;99040.78;;;5.13;100.00
63715;BME280;49858;48.956;9.076;2022-11-06T05:21:28;99033.94;;;5.25;100.00
63715;BME280;49858;48.956;9.076;2022-11-06T05:24:14;99023.78;;;5.48;100.00
63715;BME280;49858;48.956;9.076;2022-11-06T05:26:42;99031.97;;;5.48;100.00
63715;BME280;49858;48.956;9.076;2022-11-06T05:29:10;99044.63;;;3.95;100.00
63715;BME280;49858;48.956;9.076;2022-11-06T05:31:38;99048.75;;;4.43;100.00
63715;BME280;49858;48.956;9.076;2022-11-06T05:34:07;99035.31;;;5.13;100.00
63715;BME280;49858;48.956;9.076;2022-11-06T05:36:35;99027.16;;;4.69;100.00
63715;BME280;49858;48.956;9.076;2022-11-06T05:39:03;99015.81;;;4.98;100.00
63715;BME280;49858;48.956;9.076;2022-11-06T05:41:31;99010.84;;;4.32;100.00
63715;BME280;49858;48.956;9.076;2022-11-06T05:43:58;99016.47;;;4.36;100.00
63715;BME280;49858;48.956;9.076;2022-11-06T05:46:26;99026.84;;;4.70;100.00
63715;BME280;49858;48.956;9.076;2022-11-06T05:49:14;99020.50;;;5.06;100.00
63715;BME280;49858;48.956;9.076;2022-11-06T05:51:42;99021.63;;;5.05;100.00
63715;BME280;49858;48.956;9.076;2022-11-06T05:54:10;99024.44;;;4.91;100.00
63715;BME280;49858;48.956;9.076;2022-11-06T05:56:38;99021.47;;;4.79;100.00
63715;BME280;49858;48.956;9.076;2022-11-06T05:59:05;99029.94;;;5.00;100.00
63715;BME280;49858;48.956;9.076;2022-11-06T06:01:33;99045.78;;;5.20;100.00
63715;BME280;49858;48.956;9.076;2022-11-06T06:04:01;99033.53;;;4.86;100.00
63715;BME280;49858;48.956;9.076;2022-11-06T06:06:30;99029.06;;;5.13;100.00
63715;BME280;49858;48.956;9.076;2022-11-06T06:08:58;99038.88;;;4.92;100.00
63715;BME280;49858;48.956;9.076;2022-11-06T06:11:26;99020.22;;;4.63;100.00
63715;BME280;49858;48.956;9.076;2022-11-06T06:13:54;99023.56;;;4.23;100.00
63715;BME280;49858;48.956;9.076;2022-11-06T06:16:21;99021.53;;;4.43;100.00
63715;BME280;49858;48.956;9.076;2022-11-06T06:18:49;99028.44;;;4.49;100.00
63715;BME280;49858;48.956;9.076;2022-11-06T06:21:17;99018.31;;;4.27;100.00
63715;BME280;49858;48.956;9.076;2022-11-06T06:23:46;99007.88;;;4.20;100.00
63715;BME280;49858;48.956;9.076;2022-11-06T06:26:14;99003.53;;;4.19;100.00
63715;BME280;49858;48.956;9.076;2022-11-06T06:28:42;99008.06;;;4.24;100.00
63715;BME280;49858;48.956;9.076;2022-11-06T06:31:10;99015.38;;;3.87;100.00
63715;BME280;49858;48.956;9.076;2022-11-06T06:33:38;99002.59;;;3.88;100.00
63715;BME280;49858;48.956;9.076;2022-11-06T06:36:07;99001.28;;;3.71;100.00
63715;BME280;49858;48.956;9.076;2022-11-06T06:38:35;99003.41;;;3.74;100.00
63715;BME280;49858;48.956;9.076;2022-11-06T06:41:05;98998.56;;;3.71;100.00
63715;BME280;49858;48.956;9.076;2022-11-06T06:43:34;99011.41;;;4.07;100.00
63715;BME280;49858;48.956;9.076;2022-11-06T06:46:04;99009.25;;;3.81;100.00
63715;BME280;49858;48.956;9.076;2022-11-06T06:48:32;99000.88;;;3.64;100.00
63715;BME280;49858;48.956;9.076;2022-11-06T06:51:00;98999.28;;;3.36;100.00
63715;BME280;49858;48.956;9.076;2022-11-06T06:53:29;98999.38;;;3.58;100.00
63715;BME280;49858;48.956;9.076;2022-11-06T06:55:58;98993.41;;;3.70;100.00
63715;BME280;49858;48.956;9.076;2022-11-06T06:58:28;99000.88;;;3.78;100.00
63715;BME280;49858;48.956;9.076;2022-11-06T07:00:58;98978.00;;;3.79;100.00
63715;BME280;49858;48.956;9.076;2022-11-06T07:03:26;98971.66;;;3.56;100.00
63715;BME280;49858;48.956;9.076;2022-11-06T07:05:55;98973.69;;;3.64;100.00
63715;BME280;49858;48.956;9.076;2022-11-06T07:08:23;98972.88;;;3.50;100.00
63715;BME280;49858;48.956;9.076;2022-11-06T07:10:51;98961.50;;;4.12;100.00
63715;BME280;49858;48.956;9.076;2022-11-06T07:13:19;98956.50;;;4.27;100.00
63715;BME280;49858;48.956;9.076;2022-11-06T07:15:48;98954.97;;;4.35;100.00
63715;BME280;49858;48.956;9.076;2022-11-06T07:18:16;98958.97;;;4.60;100.00
63715;BME280;49858;48.956;9.076;2022-11-06T07:20:44;98956.75;;;4.40;100.00
63715;BME280;49858;48.956;9.076;2022-11-06T07:23:13;98959.59;;;4.34;100.00
63715;BME280;49858;48.956;9.076;2022-11-06T07:25:42;98937.22;;;4.38;100.00
63715;BME280;49858;48.956;9.076;2022-11-06T07:28:10;98940.53;;;4.34;100.00
63715;BME280;49858;48.956;9.076;2022-11-06T07:30:38;98931.38;;;4.30;100.00
63715;BME280;49858;48.956;9.076;2022-11-06T07:33:08;98927.53;;;4.31;100.00
63715;BME280;49858;48.956;9.076;2022-11-06T07:35:36;98922.16;;;4.40;100.00
63715;BME280;49858;48.956;9.076;2022-11-06T07:38:04;98916.81;;;4.80;100.00
63715;BME280;49858;48.956;9.076;2022-11-06T07:40:33;98912.03;;;4.63;100.00
63715;BME280;49858;48.956;9.076;2022-11-06T07:43:04;98908.81;;;4.92;100.00
63715;BME280;49858;48.956;9.076;2022-11-06T07:45:32;98899.81;;;5.31;100.00
63715;BME280;49858;48.956;9.076;2022-11-06T07:48:01;98901.53;;;5.67;100.00
63715;BME280;49858;48.956;9.076;2022-11-06T07:50:31;98895.19;;;5.41;100.00
63715;BME280;49858;48.956;9.076;2022-11-06T07:53:00;98891.38;;;5.42;100.00
63715;BME280;49858;48.956;9.076;2022-11-06T07:55:28;98882.56;;;5.62;100.00
63715;BME280;49858;48.956;9.076;2022-11-06T07:57:57;98877.13;;;5.62;100.00
63715;BME280;49858;48.956;9.076;2022-11-06T08:00:25;98868.28;;;5.56;100.00
63715;BME280;49858;48.956;9.076;2022-11-06T08:02:53;98877.34;;;5.26;100.00
63715;BME280;49858;48.956;9.076;2022-11-06T08:05:21;98870.09;;;6.22;100.00
63715;BME280;49858;48.956;9.076;2022-11-06T08:07:56;98858.50;;;6.89;100.00
63715;BME280;49858;48.956;9.076;2022-11-06T08:10:23;98847.16;;;7.08;100.00
63715;BME280;49858;48.956;9.076;2022-11-06T08:12:51;98849.75;;;7.04;100.00
63715;BME280;49858;48.956;9.076;2022-11-06T08:15:19;98843.19;;;6.97;100.00
63715;BME280;49858;48.956;9.076;2022-11-06T08:17:46;98849.28;;;7.53;100.00
63715;BME280;49858;48.956;9.076;2022-11-06T08:20:14;98854.69;;;7.40;100.00
63715;BME280;49858;48.956;9.076;2022-11-06T08:22:42;98857.25;;;8.08;100.00
63715;BME280;49858;48.956;9.076;2022-11-06T08:25:11;98849.88;;;9.00;100.00
63715;BME280;49858;48.956;9.076;2022-11-06T08:27:39;98854.31;;;9.16;100.00
63715;BME280;49858;48.956;9.076;2022-11-06T08:30:08;98856.38;;;9.07;100.00
63715;BME280;49858;48.956;9.076;2022-11-06T08:32:36;98860.38;;;9.34;100.00
63715;BME280;49858;48.956;9.076;2022-11-06T08:35:05;98864.25;;;9.45;100.00
63715;BME280;49858;48.956;9.076;2022-11-06T08:37:33;98850.00;;;9.15;100.00
63715;BME280;49858;48.956;9.076;2022-11-06T08:40:03;98844.84;;;9.38;100.00
63715;BME280;49858;48.956;9.076;2022-11-06T08:42:32;98846.84;;;10.06;100.00
63715;BME280;49858;48.956;9.076;2022-11-06T08:45:00;98837.41;;;10.47;100.00
63715;BME280;49858;48.956;9.076;2022-11-06T08:47:28;98833.28;;;9.97;100.00
63715;BME280;49858;48.956;9.076;2022-11-06T08:49:56;98831.81;;;10.16;100.00
63715;BME280;49858;48.956;9.076;2022-11-06T08:52:24;98825.44;;;11.19;100.00
63715;BME280;49858;48.956;9.076;2022-11-06T08:54:59;98835.50;;;10.80;100.00
63715;BME280;49858;48.956;9.076;2022-11-06T08:57:27;98831.28;;;11.33;100.00
63715;BME280;49858;48.956;9.076;2022-11-06T08:59:56;98834.63;;;12.13;100.00
63715;BME280;49858;48.956;9.076;2022-11-06T09:02:24;98828.25;;;11.38;100.00
63715;BME280;49858;48.956;9.076;2022-11-06T09:04:52;98827.66;;;11.99;100.00
63715;BME280;49858;48.956;9.076;2022-11-06T09:07:19;98828.31;;;12.32;100.00
63715;BME280;49858;48.956;9.076;2022-11-06T09:09:47;98846.78;;;11.73;100.00
63715;BME280;49858;48.956;9.076;2022-11-06T09:12:15;98856.22;;;13.15;100.00
63715;BME280;49858;48.956;9.076;2022-11-06T09:14:43;98876.75;;;9.18;100.00
63715;BME280;49858;48.956;9.076;2022-11-06T09:17:12;98885.00;;;8.61;100.00
63715;BME280;49858;48.956;9.076;2022-11-06T09:19:40;98879.03;;;8.26;100.00
63715;BME280;49858;48.956;9.076;2022-11-06T09:22:07;98875.16;;;8.48;100.00
63715;BME280;49858;48.956;9.076;2022-11-06T09:24:35;98879.84;;;8.05;100.00
63715;BME280;49858;48.956;9.076;2022-11-06T09:27:23;98853.66;;;9.32;100.00
63715;BME280;49858;48.956;9.076;2022-11-06T09:29:51;98840.59;;;12.15;100.00
63715;BME280;49858;48.956;9.076;2022-11-06T09:32:20;98836.22;;;11.94;100.00
63715;BME280;49858;48.956;9.076;2022-11-06T09:34:49;98843.84;;;10.99;100.00
63715;BME280;49858;48.956;9.076;2022-11-06T09:37:17;98844.38;;;11.20;100.00
63715;BME280;49858;48.956;9.076;2022-11-06T09:39:45;98828.31;;;9.63;100.00
63715;BME280;49858;48.956;9.076;2022-11-06T09:42:21;98829.28;;;11.65;100.00
63715;BME280;49858;48.956;9.076;2022-11-06T09:45:00;98817.91;;;14.26;100.00
63715;BME280;49858;48.956;9.076;2022-11-06T09:47:36;98813.88;;;14.50;100.00
63715;BME280;49858;48.956;9.076;2022-11-06T09:50:12;98804.44;;;15.62;98.07
63715;BME280;49858;48.956;9.076;2022-11-06T09:52:46;98797.66;;;16.35;97.17
63715;BME280;49858;48.956;9.076;2022-11-06T09:55:18;98798.94;;;16.70;90.96
63715;BME280;49858;48.956;9.076;2022-11-06T09:57:50;98790.22;;;17.29;84.59
63715;BME280;49858;48.956;9.076;2022-11-06T10:00:19;98788.97;;;17.66;80.95
63715;BME280;49858;48.956;9.076;2022-11-06T10:02:50;98780.63;;;17.69;82.49
63715;BME280;49858;48.956;9.076;2022-11-06T10:05:23;98779.53;;;17.24;90.38
63715;BME280;49858;48.956;9.076;2022-11-06T10:07:54;98780.28;;;17.35;91.79
63715;BME280;49858;48.956;9.076;2022-11-06T10:10:28;98762.72;;;17.88;78.70
63715;BME280;49858;48.956;9.076;2022-11-06T10:13:13;98762.66;;;17.92;78.57
63715;BME280;49858;48.956;9.076;2022-11-06T10:15:49;98760.47;;;17.19;86.63
63715;BME280;49858;48.956;9.076;2022-11-06T10:18:22;98764.66;;;17.95;80.35
63715;BME280;49858;48.956;9.076;2022-11-06T10:21:03;98746.47;;;17.61;81.00
63715;BME280;49858;48.956;9.076;2022-11-06T10:23:42;98737.31;;;17.79;81.50
63715;BME280;49858;48.956;9.076;2022-11-06T10:26:14;98731.34;;;17.73;80.24
63715;BME280;49858;48.956;9.076;2022-11-06T10:31:39;98711.28;;;16.80;87.81
63715;BME280;49858;48.956;9.076;2022-11-06T10:34:16;98712.81;;;16.59;90.16
63715;BME280;49858;48.956;9.076;2022-11-06T10:36:49;98703.34;;;16.89;92.20
63715;BME280;49858;48.956;9.076;2022-11-06T10:39:20;98691.03;;;16.83;84.92
63715;BME280;49858;48.956;9.076;2022-11-06T10:41:51;98689.16;;;15.53;98.00
63715;BME280;49858;48.956;9.076;2022-11-06T10:44:23;98675.78;;;14.93;99.90
63715;BME280;49858;48.956;9.076;2022-11-06T10:46:53;98682.13;;;14.46;100.00
63715;BME280;49858;48.956;9.076;2022-11-06T10:49:29;98676.56;;;14.94;100.00
63715;BME280;49858;48.956;9.076;2022-11-06T10:52:10;98667.81;;;14.37;100.00
63715;BME280;49858;48.956;9.076;2022-11-06T10:54:53;98663.22;;;14.11;100.00
63715;BME280;49858;48.956;9.076;2022-11-06T10:57:29;98639.91;;;13.71;100.00
63715;BME280;49858;48.956;9.076;2022-11-06T11:00:01;98642.00;;;13.47;100.00
63715;BME280;49858;48.956;9.076;2022-11-06T11:02:33;98637.69;;;13.50;100.00
63715;BME280;49858;48.956;9.076;2022-11-06T11:05:10;98619.56;;;13.52;100.00
63715;BME280;49858;48.956;9.076;2022-11-06T11:07:39;98622.88;;;13.32;100.00
63715;BME280;49858;48.956;9.076;2022-11-06T11:10:25;98620.47;;;13.64;100.00
63715;BME280;49858;48.956;9.076;2022-11-06T11:12:54;98604.16;;;13.51;100.00
63715;BME280;49858;48.956;9.076;2022-11-06T11:15:24;98594.75;;;13.56;100.00
63715;BME280;49858;48.956;9.076;2022-11-06T11:18:14;98591.28;;;14.11;100.00
63715;BME280;49858;48.956;9.076;2022-11-06T11:20:48;98592.34;;;14.43;100.00
63715;BME280;49858;48.956;9.076;2022-11-06T11:23:18;98585.84;;;14.18;100.00
63715;BME280;49858;48.956;9.076;2022-11-06T11:25:49;98580.09;;;14.44;100.00
63715;BME280;49858;48.956;9.076;2022-11-06T11:28:24;98577.81;;;14.53;100.00
63715;BME280;49858;48.956;9.076;2022-11-06T11:30:54;98576.97;;;15.15;100.00
63715;BME280;49858;48.956;9.076;2022-11-06T11:33:25;98587.44;;;15.65;100.00
63715;BME280;49858;48.956;9.076;2022-11-06T11:35:55;98571.28;;;14.28;100.00
63715;BME280;49858;48.956;9.076;2022-11-06T11:38:23;98565.38;;;14.95;100.00
63715;BME280;49858;48.956;9.076;2022-11-06T11:40:51;98570.72;;;15.43;96.84
63715;BME280;49858;48.956;9.076;2022-11-06T11:43:31;98558.16;;;16.03;93.12
63715;BME280;49858;48.956;9.076;2022-11-06T11:46:10;98562.03;;;15.48;96.39
63715;BME280;49858;48.956;9.076;2022-11-06T11:48:42;98552.13;;;15.62;91.33
63715;BME280;49858;48.956;9.076;2022-11-06T11:51:18;98548.69;;;14.74;100.00
63715;BME280;49858;48.956;9.076;2022-11-06T11:53:49;98542.19;;;16.89;88.04
63715;BME280;49858;48.956;9.076;2022-11-06T11:56:19;98537.91;;;16.52;91.17
63715;BME280;49858;48.956;9.076;2022-11-06T11:59:15;98519.69;;;16.26;87.08
63715;BME280;49858;48.956;9.076;2022-11-06T12:01:43;98519.22;;;16.60;88.99
63715;BME280;49858;48.956;9.076;2022-11-06T12:04:17;98521.31;;;16.09;86.37
63715;BME280;49858;48.956;9.076;2022-11-06T12:06:53;98517.66;;;16.45;82.41
63715;BME280;49858;48.956;9.076;2022-11-06T12:09:22;98512.16;;;16.16;89.18
63715;BME280;49858;48.956;9.076;2022-11-06T12:11:53;98515.34;;;15.90;90.87
63715;BME280;49858;48.956;9.076;2022-11-06T12:14:26;98499.84;;;16.39;90.56
63715;BME280;49858;48.956;9.076;2022-11-06T12:16:56;98498.56;;;16.65;87.01
63715;BME280;49858;48.956;9.076;2022-11-06T12:19:27;98479.66;;;16.13;88.89
63715;BME280;49858;48.956;9.076;2022-11-06T12:22:02;98483.94;;;16.46;89.75
63715;BME280;49858;48.956;9.076;2022-11-06T12:24:36;98475.66;;;16.32;89.78
63715;BME280;49858;48.956;9.076;2022-11-06T12:27:10;98470.13;;;16.25;92.69
63715;BME280;49858;48.956;9.076;2022-11-06T12:29:40;98472.16;;;15.85;95.43
63715;BME280;49858;48.956;9.076;2022-11-06T12:32:20;98475.59;;;15.03;95.83
63715;BME280;49858;48.956;9.076;2022-11-06T12:34:55;98479.25;;;15.43;100.00
63715;BME280;49858;48.956;9.076;2022-11-06T12:37:35;98474.06;;;16.38;89.77
63715;BME280;49858;48.956;9.076;2022-11-06T12:40:13;98466.47;;;14.96;100.00
63715;BME280;49858;48.956;9.076;2022-11-06T12:42:58;98461.34;;;14.98;100.00
63715;BME280;49858;48.956;9.076;2022-11-06T12:45:36;98459.00;;;15.14;100.00
63715;BME280;49858;48.956;9.076;2022-11-06T12:48:12;98462.91;;;14.95;100.00
63715;BME280;49858;48.956;9.076;2022-11-06T12:50:47;98454.25;;;14.24;100.00
63715;BME280;49858;48.956;9.076;2022-11-06T12:53:30;98449.69;;;13.87;100.00
63715;BME280;49858;48.956;9.076;2022-11-06T12:56:09;98443.09;;;13.51;100.00
63715;BME280;49858;48.956;9.076;2022-11-06T12:59:00;98437.03;;;13.35;100.00
63715;BME280;49858;48.956;9.076;2022-11-06T13:01:42;98434.38;;;13.49;100.00
63715;BME280;49858;48.956;9.076;2022-11-06T13:04:20;98436.91;;;13.68;100.00
63715;BME280;49858;48.956;9.076;2022-11-06T13:07:02;98434.03;;;13.13;100.00
63715;BME280;49858;48.956;9.076;2022-11-06T13:09:39;98419.91;;;13.66;100.00
63715;BME280;49858;48.956;9.076;2022-11-06T13:12:17;98424.66;;;13.66;100.00
63715;BME280;49858;48.956;9.076;2022-11-06T13:14:59;98425.88;;;13.72;100.00
63715;BME280;49858;48.956;9.076;2022-11-06T13:17:32;98428.44;;;13.47;100.00
63715;BME280;49858;48.956;9.076;2022-11-06T13:20:06;98419.66;;;13.34;100.00
63715;BME280;49858;48.956;9.076;2022-11-06T13:22:41;98415.72;;;13.35;100.00
63715;BME280;49858;48.956;9.076;2022-11-06T13:25:16;98417.34;;;12.99;100.00
63715;BME280;49858;48.956;9.076;2022-11-06T13:27:50;98416.22;;;13.07;100.00
63715;BME280;49858;48.956;9.076;2022-11-06T13:30:23;98408.81;;;13.15;100.00